Terminal Aerodrome Forecast
Issued by NWS Charleston, WV

Current Version | Previous Version | Graphics & Text | Print | Product List | Glossary On
Versions: 1 2 3 4 5 6 7 8 9 10 11 12 13 14 15 16 17 18 19 20
037
FTUS41 KRLX 050535
TAFBKW
TAF
KBKW 050535Z 0506/0606 32008G17KT P6SM OVC025
     FM050900 32007KT P6SM BKN015
     FM051400 32007KT P6SM SCT020
     FM060000 VRB03KT P6SM SCT250=

USA.gov is the U.S. government's official web portal to all federal, state and local government web resources and services.